createdAt,value
2023-02-19T00:01:36.243Z,45.30
2023-02-19T00:04:07.368Z,41.80
2023-02-19T00:06:35.342Z,40.50
2023-02-19T00:09:03.018Z,42.20
2023-02-19T00:11:32.715Z,42.60
2023-02-19T00:14:00.969Z,43.40
2023-02-19T00:16:36.750Z,45.20
2023-02-19T00:19:07.621Z,42.10
2023-02-19T00:21:34.624Z,44.60
2023-02-19T00:26:31.112Z,44.80
2023-02-19T00:28:59.265Z,41.10
2023-02-19T00:31:27.629Z,40.60
2023-02-19T00:33:57.685Z,45.30
2023-02-19T00:36:26.308Z,44.50
2023-02-19T00:38:53.335Z,32.10
2023-02-19T00:43:49.580Z,37.60
2023-02-19T00:46:19.158Z,42.80
2023-02-19T00:48:46.959Z,40.50
2023-02-19T00:51:14.855Z,41.70
2023-02-19T00:53:42.662Z,39.40
2023-02-19T00:56:10.006Z,42.80
2023-02-19T00:58:37.569Z,39.40
2023-02-19T01:01:06.117Z,42.90
2023-02-19T01:03:34.333Z,41.00
2023-02-19T01:06:02.433Z,39.50
2023-02-19T01:08:33.044Z,42.40
2023-02-19T01:11:04.542Z,43.20
2023-02-19T01:13:32.300Z,43.20
2023-02-19T01:16:05.946Z,43.00
2023-02-19T01:18:33.622Z,42.00
2023-02-19T01:21:08.686Z,44.60
2023-02-19T01:23:40.199Z,51.50
2023-02-19T01:26:12.794Z,60.30
2023-02-19T01:28:40.498Z,71.10
2023-02-19T01:31:10.565Z,53.10
2023-02-19T01:33:37.681Z,39.60
2023-02-19T01:36:06.398Z,41.90
2023-02-19T01:38:33.353Z,57.00
2023-02-19T01:41:02.861Z,56.60
2023-02-19T01:43:32.840Z,60.70
2023-02-19T01:45:59.991Z,57.80
2023-02-19T01:48:37.711Z,55.20
2023-02-19T01:51:06.592Z,52.50
2023-02-19T01:53:38.745Z,52.50
2023-02-19T01:56:06.919Z,59.20
2023-02-19T01:58:39.156Z,53.50
2023-02-19T02:01:08.100Z,54.40
2023-02-19T02:03:37.585Z,57.90
2023-02-19T02:06:21.609Z,58.00
2023-02-19T02:09:13.565Z,56.20
2023-02-19T02:11:47.993Z,52.60
2023-02-19T02:14:18.066Z,54.70
2023-02-19T02:17:03.928Z,48.50
2023-02-19T02:20:05.099Z,42.90
2023-02-19T02:22:41.803Z,45.00
2023-02-19T02:28:06.326Z,59.80
2023-02-19T02:30:42.276Z,51.80
2023-02-19T02:33:27.978Z,55.70
2023-02-19T02:36:24.032Z,48.70
2023-02-19T02:38:53.502Z,37.30
2023-02-19T02:41:21.626Z,25.40
2023-02-19T02:43:48.779Z,26.50
2023-02-19T02:49:03.299Z,22.00
2023-02-19T02:51:38.183Z,20.00
2023-02-19T02:54:42.046Z,29.40
2023-02-19T02:57:15.543Z,22.90
2023-02-19T02:59:48.621Z,24.90
2023-02-19T03:02:22.690Z,22.40
2023-02-19T03:05:14.348Z,25.40
2023-02-19T03:08:10.890Z,23.10
2023-02-19T03:10:46.253Z,22.40
2023-02-19T03:13:51.911Z,22.20
2023-02-19T03:16:49.027Z,24.10
2023-02-19T03:19:19.920Z,24.00
2023-02-19T03:22:10.340Z,22.60
2023-02-19T03:25:09.111Z,22.20
2023-02-19T03:27:39.194Z,25.20
2023-02-19T03:30:14.129Z,24.80
2023-02-19T03:33:08.157Z,25.40
2023-02-19T03:35:44.501Z,23.80
2023-02-19T03:38:23.885Z,27.00
2023-02-19T03:41:13.333Z,26.50
2023-02-19T03:43:52.112Z,26.80
2023-02-19T03:46:41.588Z,26.90
2023-02-19T03:49:43.689Z,27.00
2023-02-19T03:52:21.139Z,26.00
2023-02-19T03:55:15.874Z,26.20
2023-02-19T03:57:46.048Z,24.90
2023-02-19T04:00:24.998Z,27.10
2023-02-19T04:03:00.237Z,26.10
2023-02-19T04:05:35.492Z,24.00
2023-02-19T04:08:16.576Z,22.90
2023-02-19T04:10:49.210Z,27.40
2023-02-19T04:13:27.477Z,24.00
2023-02-19T04:16:00.297Z,26.80
2023-02-19T04:18:33.869Z,28.40
2023-02-19T04:21:02.833Z,29.40
2023-02-19T04:23:37.103Z,24.40
2023-02-19T04:26:06.049Z,25.80
2023-02-19T04:28:33.676Z,25.20
2023-02-19T04:31:01.669Z,26.50
2023-02-19T04:33:28.472Z,26.00
2023-02-19T04:35:55.476Z,25.80
2023-02-19T04:40:50.883Z,26.70
2023-02-19T04:43:18.596Z,26.50
2023-02-19T04:45:45.404Z,26.90
2023-02-19T04:48:12.275Z,23.70
2023-02-19T04:50:40.380Z,26.60
2023-02-19T04:53:07.469Z,24.30
2023-02-19T04:55:38.783Z,25.50
2023-02-19T04:58:05.870Z,22.60
2023-02-19T05:03:00.687Z,25.20
2023-02-19T05:05:27.682Z,26.90
2023-02-19T05:07:54.503Z,24.40
2023-02-19T05:10:21.524Z,26.20
2023-02-19T05:12:48.654Z,25.10
2023-02-19T05:15:16.026Z,27.50
2023-02-19T05:17:43.063Z,25.80
2023-02-19T05:22:36.995Z,27.20
2023-02-19T05:25:04.727Z,27.50
2023-02-19T05:27:32.319Z,27.80
2023-02-19T05:30:01.256Z,27.40
2023-02-19T05:32:28.407Z,25.10
2023-02-19T05:37:22.372Z,26.40
2023-02-19T05:39:49.687Z,28.40
2023-02-19T05:42:16.842Z,26.30
2023-02-19T05:44:43.882Z,26.10
2023-02-19T05:49:37.855Z,29.40
2023-02-19T05:52:05.093Z,26.20
2023-02-19T05:54:32.257Z,28.80
2023-02-19T05:56:59.544Z,35.60
2023-02-19T05:59:27.797Z,30.30
2023-02-19T06:04:22.884Z,28.00
2023-02-19T06:06:50.752Z,29.80
2023-02-19T06:09:18.045Z,25.60
2023-02-19T06:14:13.876Z,24.90
2023-02-19T06:16:41.196Z,29.50
2023-02-19T06:19:08.105Z,27.70
2023-02-19T06:24:11.127Z,26.90
2023-02-19T06:26:38.112Z,26.80
2023-02-19T06:29:05.240Z,27.50
2023-02-19T06:31:32.106Z,28.60
2023-02-19T06:36:32.553Z,24.20
2023-02-19T06:39:00.481Z,22.80
2023-02-19T06:41:27.296Z,27.00
2023-02-19T06:43:54.530Z,25.40
2023-02-19T06:46:21.430Z,23.50
2023-02-19T06:48:48.858Z,22.20
2023-02-19T06:51:18.929Z,24.30
2023-02-19T06:53:46.501Z,18.60
2023-02-19T06:56:31.937Z,23.10
2023-02-19T06:59:02.011Z,20.70
2023-02-19T07:01:30.765Z,22.10
2023-02-19T07:03:58.206Z,21.20
2023-02-19T07:06:25.905Z,19.10
2023-02-19T07:08:54.973Z,18.70
2023-02-19T07:11:22.754Z,18.20
2023-02-19T07:13:56.616Z,20.70
2023-02-19T07:16:24.712Z,24.20
2023-02-19T07:18:52.035Z,22.60
2023-02-19T07:21:19.146Z,19.90
2023-02-19T07:23:46.128Z,20.40
2023-02-19T07:26:15.074Z,20.80
2023-02-19T07:28:46.697Z,19.90
2023-02-19T07:31:15.868Z,21.30
2023-02-19T07:33:44.054Z,22.20
2023-02-19T07:36:12.224Z,26.30
2023-02-19T07:38:39.409Z,21.90
2023-02-19T07:41:07.060Z,21.30
2023-02-19T07:43:36.406Z,21.40
2023-02-19T07:46:05.297Z,23.60
2023-02-19T07:48:34.689Z,21.20
2023-02-19T07:51:03.589Z,25.40
2023-02-19T07:53:32.951Z,21.60
2023-02-19T07:56:01.831Z,23.00
2023-02-19T07:58:31.022Z,16.90
2023-02-19T08:01:06.638Z,20.70
2023-02-19T08:03:34.642Z,21.20
2023-02-19T08:06:01.853Z,17.60
2023-02-19T08:08:29.449Z,19.60
2023-02-19T08:11:18.406Z,16.70
2023-02-19T08:13:48.794Z,18.00
2023-02-19T08:16:29.567Z,19.60
2023-02-19T08:19:05.813Z,15.90
2023-02-19T08:21:34.495Z,15.70
2023-02-19T08:24:01.959Z,16.50
2023-02-19T08:28:55.627Z,16.60
2023-02-19T08:33:49.383Z,19.60
2023-02-19T08:36:16.432Z,18.60
2023-02-19T08:38:45.610Z,17.50
2023-02-19T08:43:42.058Z,18.40
2023-02-19T08:46:12.403Z,20.20
2023-02-19T08:48:39.806Z,21.00
2023-02-19T08:51:10.846Z,21.40
2023-02-19T08:53:39.854Z,20.60
2023-02-19T08:56:13.148Z,25.60
2023-02-19T08:58:40.441Z,21.00
2023-02-19T09:01:13.095Z,24.10
2023-02-19T09:03:41.028Z,27.90
2023-02-19T09:06:13.954Z,22.40
2023-02-19T09:08:41.325Z,21.30
2023-02-19T09:11:08.155Z,22.90
2023-02-19T09:13:35.192Z,24.70
2023-02-19T09:18:30.520Z,23.20
2023-02-19T09:21:03.986Z,25.00
2023-02-19T09:23:36.495Z,24.30
2023-02-19T09:26:08.089Z,23.40
2023-02-19T09:28:35.867Z,22.60
2023-02-19T09:31:05.483Z,26.00
2023-02-19T09:33:32.901Z,21.10
2023-02-19T09:36:01.410Z,24.20
2023-02-19T09:38:29.769Z,23.60
2023-02-19T09:40:58.848Z,23.50
2023-02-19T09:43:29.499Z,22.70
2023-02-19T09:46:11.836Z,26.90
2023-02-19T09:48:38.893Z,26.60
2023-02-19T09:51:10.269Z,26.90
2023-02-19T09:53:43.966Z,27.50
2023-02-19T09:56:11.183Z,25.80
2023-02-19T09:58:48.157Z,24.30
2023-02-19T10:01:15.879Z,29.50
2023-02-19T10:03:46.663Z,29.20
2023-02-19T10:06:23.187Z,29.90
2023-02-19T10:08:54.055Z,28.80
2023-02-19T10:11:25.184Z,39.40
2023-02-19T10:14:08.741Z,29.60
2023-02-19T10:16:43.501Z,31.20
2023-02-19T10:19:12.756Z,30.80
2023-02-19T10:21:40.841Z,33.00
2023-02-19T10:24:14.609Z,39.40
2023-02-19T10:26:41.812Z,36.10
2023-02-19T10:29:09.995Z,34.50
2023-02-19T10:31:37.413Z,46.20
2023-02-19T10:34:18.249Z,49.40
2023-02-19T10:36:49.716Z,50.50
2023-02-19T10:39:41.681Z,42.60
2023-02-19T10:42:23.352Z,42.20
2023-02-19T10:44:58.631Z,35.40
2023-02-19T10:47:29.493Z,37.30
2023-02-19T10:50:00.810Z,41.70
2023-02-19T10:52:33.505Z,47.20
2023-02-19T10:55:24.345Z,41.30
2023-02-19T10:57:51.729Z,40.40
2023-02-19T11:00:28.389Z,41.00
2023-02-19T11:03:19.303Z,39.60
2023-02-19T11:06:01.433Z,32.60
2023-02-19T11:08:56.640Z,36.00
2023-02-19T11:11:37.282Z,35.20
2023-02-19T11:14:17.072Z,36.10
2023-02-19T11:16:52.925Z,36.10
2023-02-19T11:19:40.912Z,49.00
2023-02-19T11:22:30.296Z,38.30
2023-02-19T11:25:14.465Z,39.40
2023-02-19T11:28:06.455Z,44.20
2023-02-19T11:30:40.115Z,40.90
2023-02-19T11:33:29.643Z,44.30
2023-02-19T11:36:29.469Z,40.70
2023-02-19T11:39:00.866Z,34.20
2023-02-19T11:41:36.573Z,34.60
2023-02-19T11:44:32.495Z,34.50
2023-02-19T11:47:21.190Z,32.60
2023-02-19T11:50:02.505Z,35.70
2023-02-19T11:53:09.073Z,31.70
2023-02-19T11:55:51.434Z,39.90
2023-02-19T11:58:47.329Z,43.60
2023-02-19T12:01:48.514Z,40.40
2023-02-19T12:04:43.085Z,43.50
2023-02-19T12:07:38.503Z,46.20
2023-02-19T12:10:08.512Z,61.30
2023-02-19T12:12:42.180Z,50.80
2023-02-19T12:15:43.564Z,44.90
2023-02-19T12:18:39.965Z,51.90
2023-02-19T12:21:17.374Z,49.70
2023-02-19T12:23:56.122Z,45.60
2023-02-19T12:26:59.171Z,52.70
2023-02-19T12:29:36.474Z,53.60
2023-02-19T12:32:03.655Z,53.00
2023-02-19T12:34:55.034Z,44.70
2023-02-19T12:37:39.323Z,55.60
2023-02-19T12:40:45.598Z,45.20
2023-02-19T12:43:23.271Z,47.90
2023-02-19T12:46:18.497Z,49.20
2023-02-19T12:48:52.956Z,39.90
2023-02-19T12:51:32.207Z,49.30
2023-02-19T12:56:34.066Z,53.80
2023-02-19T12:59:39.540Z,49.40
2023-02-19T13:02:09.991Z,53.10
2023-02-19T13:04:55.955Z,52.10
2023-02-19T13:07:35.780Z,48.20
2023-02-19T13:10:17.812Z,55.70
2023-02-19T13:12:48.539Z,54.60
2023-02-19T13:15:21.752Z,52.20
2023-02-19T13:17:52.405Z,53.30
2023-02-19T13:20:35.258Z,52.70
2023-02-19T13:23:36.925Z,60.70
2023-02-19T13:26:08.019Z,56.10
2023-02-19T13:29:15.965Z,60.60
2023-02-19T13:32:05.259Z,57.20
2023-02-19T13:34:56.146Z,61.60
2023-02-19T13:37:27.466Z,63.90
2023-02-19T13:40:06.088Z,58.80
2023-02-19T13:42:51.075Z,82.50
2023-02-19T13:45:38.021Z,67.70
2023-02-19T13:48:23.591Z,59.70
2023-02-19T13:51:36.527Z,64.70
2023-02-19T13:54:40.126Z,62.20
2023-02-19T13:57:24.140Z,66.40
2023-02-19T13:59:57.428Z,60.10
2023-02-19T14:02:39.544Z,58.80
2023-02-19T14:05:11.081Z,63.60
2023-02-19T14:07:55.447Z,58.90
2023-02-19T14:11:01.978Z,59.20
2023-02-19T14:16:37.350Z,54.80
2023-02-19T14:19:14.387Z,62.30
2023-02-19T14:21:46.049Z,69.30
2023-02-19T14:24:20.079Z,65.50
2023-02-19T14:26:51.136Z,65.60
2023-02-19T14:29:18.942Z,65.50
2023-02-19T14:31:47.180Z,60.60
2023-02-19T14:34:25.272Z,67.00
2023-02-19T14:37:01.279Z,69.90
2023-02-19T14:39:33.374Z,65.90
2023-02-19T14:42:06.392Z,71.70
2023-02-19T14:44:47.756Z,66.50
2023-02-19T14:47:21.274Z,55.20
2023-02-19T14:50:04.203Z,59.40
2023-02-19T14:52:43.773Z,61.20
2023-02-19T14:55:34.833Z,62.40
2023-02-19T14:58:16.970Z,66.30
2023-02-19T15:00:44.483Z,62.60
2023-02-19T15:03:37.137Z,64.70
2023-02-19T15:06:12.189Z,77.50
2023-02-19T15:08:44.862Z,92.00
2023-02-19T15:11:18.779Z,87.40
2023-02-19T15:13:58.397Z,80.80
2023-02-19T15:16:30.581Z,84.20
2023-02-19T15:19:00.923Z,84.80
2023-02-19T15:21:33.586Z,84.60
2023-02-19T15:24:04.664Z,78.00
2023-02-19T15:26:41.357Z,74.20
2023-02-19T15:29:14.782Z,77.10
2023-02-19T15:31:56.954Z,71.90
2023-02-19T15:34:26.532Z,82.00
2023-02-19T15:37:00.548Z,73.80
2023-02-19T15:39:32.331Z,80.70
2023-02-19T15:42:03.672Z,79.30
2023-02-19T15:44:49.401Z,77.70
2023-02-19T15:47:20.916Z,85.80
2023-02-19T15:50:01.057Z,86.20
2023-02-19T15:52:44.570Z,88.60
2023-02-19T15:55:48.262Z,85.20
2023-02-19T15:58:39.832Z,90.40
2023-02-19T16:01:21.186Z,80.80
2023-02-19T16:03:48.978Z,82.20
2023-02-19T16:06:18.005Z,81.00
2023-02-19T16:09:01.568Z,76.30
2023-02-19T16:11:39.344Z,75.40
2023-02-19T16:14:38.537Z,80.50
2023-02-19T16:17:11.399Z,86.10
2023-02-19T16:19:41.918Z,81.90
2023-02-19T16:22:15.490Z,84.70
2023-02-19T16:24:48.748Z,87.00
2023-02-19T16:27:31.205Z,85.60
2023-02-19T16:30:02.600Z,99.30
2023-02-19T16:32:29.745Z,92.20
2023-02-19T16:34:56.974Z,91.00
2023-02-19T16:37:38.478Z,95.10
2023-02-19T16:40:08.693Z,98.80
2023-02-19T16:43:01.972Z,102.80
2023-02-19T16:45:29.401Z,99.50
2023-02-19T16:47:56.584Z,98.00
2023-02-19T16:50:26.399Z,103.30
2023-02-19T16:52:59.101Z,102.40
2023-02-19T16:55:27.955Z,97.00
2023-02-19T16:57:55.407Z,105.60
2023-02-19T17:00:27.807Z,100.60
2023-02-19T17:03:01.663Z,100.50
2023-02-19T17:05:32.047Z,104.00
2023-02-19T17:07:59.027Z,102.00
2023-02-19T17:12:55.210Z,107.70
2023-02-19T17:15:23.031Z,97.80
2023-02-19T17:17:52.378Z,100.20
2023-02-19T17:20:28.965Z,93.30
2023-02-19T17:22:56.414Z,102.10
2023-02-19T17:25:23.526Z,97.60
2023-02-19T17:27:50.565Z,104.60
2023-02-19T17:30:30.143Z,110.40
2023-02-19T17:32:58.597Z,110.30
2023-02-19T17:35:25.959Z,107.40
2023-02-19T17:37:53.585Z,108.40
2023-02-19T17:40:32.783Z,109.40
2023-02-19T17:43:02.389Z,143.20
2023-02-19T17:45:29.708Z,115.70
2023-02-19T17:47:57.741Z,114.80
2023-02-19T17:50:28.419Z,108.10
2023-02-19T17:52:56.581Z,121.30
2023-02-19T17:55:24.436Z,116.40
2023-02-19T17:57:55.821Z,121.70
2023-02-19T18:00:26.847Z,122.30
2023-02-19T18:02:54.193Z,124.60
2023-02-19T18:05:25.567Z,122.90
2023-02-19T18:07:56.383Z,124.20
2023-02-19T18:10:25.455Z,108.50
2023-02-19T18:12:52.420Z,84.50
2023-02-19T18:15:22.793Z,81.70
2023-02-19T18:17:50.085Z,88.70
2023-02-19T18:20:20.867Z,76.90
2023-02-19T18:22:52.197Z,48.70
2023-02-19T18:25:23.110Z,64.90
2023-02-19T18:27:51.242Z,62.80
2023-02-19T18:30:22.174Z,66.20
2023-02-19T18:32:51.336Z,61.50
2023-02-19T18:35:20.702Z,57.50
2023-02-19T18:37:55.929Z,46.30
2023-02-19T18:40:28.154Z,49.60
2023-02-19T18:42:55.459Z,52.60
2023-02-19T18:45:22.870Z,44.10
2023-02-19T18:47:50.519Z,40.10
2023-02-19T18:50:19.286Z,44.60
2023-02-19T18:52:48.674Z,44.80
2023-02-19T18:55:16.183Z,45.00
2023-02-19T18:57:43.934Z,43.60
2023-02-19T19:00:19.193Z,35.40
2023-02-19T19:02:49.721Z,31.60
2023-02-19T19:05:25.344Z,29.10
2023-02-19T19:07:58.681Z,29.90
2023-02-19T19:10:27.025Z,34.50
2023-02-19T19:12:54.617Z,31.80
2023-02-19T19:15:23.074Z,41.40
2023-02-19T19:17:51.200Z,47.50
2023-02-19T19:20:25.640Z,43.00
2023-02-19T19:22:55.892Z,41.70
2023-02-19T19:25:26.183Z,44.60
2023-02-19T19:27:58.846Z,38.50
2023-02-19T19:30:26.293Z,28.50
2023-02-19T19:32:54.075Z,40.40
2023-02-19T19:35:23.675Z,36.60
2023-02-19T19:37:51.019Z,33.30
2023-02-19T19:40:23.274Z,32.60
2023-02-19T19:42:52.881Z,26.60
2023-02-19T19:45:28.826Z,28.20
2023-02-19T19:47:56.426Z,25.50
2023-02-19T19:50:24.771Z,25.90
2023-02-19T19:52:53.483Z,21.20
2023-02-19T19:55:21.519Z,20.20
2023-02-19T19:57:49.801Z,16.80
2023-02-19T20:00:18.880Z,14.10
2023-02-19T20:02:46.473Z,9.00
2023-02-19T20:05:15.107Z,7.00
2023-02-19T20:07:42.895Z,9.30
2023-02-19T20:10:12.397Z,9.20
2023-02-19T20:12:40.231Z,8.00
2023-02-19T20:15:08.066Z,10.30
2023-02-19T20:17:35.383Z,7.40
2023-02-19T20:20:02.814Z,7.90
2023-02-19T20:22:29.949Z,7.50
2023-02-19T20:24:57.579Z,7.40
2023-02-19T20:27:24.804Z,6.20
2023-02-19T20:29:52.057Z,7.90
2023-02-19T20:32:19.566Z,9.10
2023-02-19T20:34:48.040Z,8.50
2023-02-19T20:37:15.400Z,9.30
2023-02-19T20:39:43.075Z,8.60
2023-02-19T20:42:10.497Z,11.10
2023-02-19T20:44:37.487Z,9.80
2023-02-19T20:47:04.670Z,10.10
2023-02-19T20:52:04.266Z,9.60
2023-02-19T20:54:33.447Z,9.60
2023-02-19T20:57:04.308Z,9.60
2023-02-19T20:59:38.093Z,9.10
2023-02-19T21:02:14.132Z,9.90
2023-02-19T21:04:41.148Z,11.00
2023-02-19T21:09:35.792Z,11.00
2023-02-19T21:12:02.942Z,11.10
2023-02-19T21:14:30.190Z,10.70
2023-02-19T21:16:57.238Z,10.70
2023-02-19T21:19:24.466Z,11.60
2023-02-19T21:24:18.625Z,11.80
2023-02-19T21:26:45.983Z,10.60
2023-02-19T21:29:18.453Z,10.90
2023-02-19T21:31:48.863Z,10.10
2023-02-19T21:34:20.128Z,13.20
2023-02-19T21:36:47.336Z,11.90
2023-02-19T21:39:17.976Z,10.20
2023-02-19T21:41:45.063Z,13.20
2023-02-19T21:46:40.333Z,13.10
2023-02-19T21:49:07.384Z,14.00
2023-02-19T21:51:37.975Z,13.60
2023-02-19T21:54:06.429Z,13.60
2023-02-19T21:56:36.399Z,15.10
2023-02-19T21:59:04.095Z,14.70
2023-02-19T22:01:37.968Z,14.40
2023-02-19T22:04:10.044Z,14.10
2023-02-19T22:06:38.998Z,16.20
2023-02-19T22:09:09.110Z,14.80
2023-02-19T22:11:36.315Z,15.80
2023-02-19T22:14:03.567Z,16.50
2023-02-19T22:16:30.887Z,15.70
2023-02-19T22:18:59.191Z,16.70
2023-02-19T22:21:29.964Z,20.00
2023-02-19T22:24:02.096Z,16.70
2023-02-19T22:26:36.033Z,17.60
2023-02-19T22:29:06.488Z,18.60
2023-02-19T22:31:34.285Z,19.60
2023-02-19T22:34:01.704Z,17.60
2023-02-19T22:36:31.076Z,20.00
2023-02-19T22:38:59.770Z,19.10
2023-02-19T22:41:26.982Z,19.30
2023-02-19T22:46:24.837Z,19.80
2023-02-19T22:48:51.999Z,21.80
2023-02-19T22:51:22.178Z,21.90
2023-02-19T22:53:54.804Z,21.40
2023-02-19T22:56:24.453Z,21.10
2023-02-19T22:58:52.315Z,21.70
2023-02-19T23:01:19.747Z,23.20
2023-02-19T23:03:48.085Z,20.30
2023-02-19T23:06:16.668Z,24.50
2023-02-19T23:08:44.009Z,22.40
2023-02-19T23:11:12.653Z,21.70
2023-02-19T23:13:42.730Z,24.60
2023-02-19T23:16:10.088Z,22.50
2023-02-19T23:18:37.375Z,23.30
2023-02-19T23:23:32.032Z,21.30
2023-02-19T23:25:58.980Z,24.30
2023-02-19T23:28:25.962Z,25.00
2023-02-19T23:30:53.188Z,22.30
2023-02-19T23:33:20.284Z,26.40
2023-02-19T23:35:49.559Z,25.70
2023-02-19T23:38:17.800Z,24.80
2023-02-19T23:40:45.012Z,26.30
2023-02-19T23:45:38.796Z,23.20
2023-02-19T23:50:32.721Z,23.30
2023-02-19T23:52:59.721Z,26.00
2023-02-19T23:55:26.874Z,24.50
2023-02-19T23:57:54.083Z,24.00
